Time;durP1;ratioP1;P1;durP2;ratioP2;P2;SDS_P1;SDS_P2;PMS_P1;PMS_P2;Temp;Humidity;BMP_temperature;BMP_pressure;BME280_temperature;BME280_humidity;BME280_pressure;Samples;Min_cycle;Max_cycle;Signal;HPM_P1;HPM_P2
2022/08/17 00:01:42;;;;;;;6.80;5.20;;;;;;;28.88;44.25;100156.04;104602;1309;61270;-80
2022/08/17 00:04:08;;;;;;;7.00;5.40;;;;;;;28.87;44.03;100157.91;104627;1309;61252;-80
2022/08/17 00:06:34;;;;;;;7.20;5.20;;;;;;;28.87;44.16;100158.29;104618;1309;61474;-80
2022/08/17 00:09:02;;;;;;;7.60;5.20;;;;;;;28.88;44.28;100156.09;104579;1308;73811;-80
2022/08/17 00:11:50;;;;;;;7.60;5.50;;;;;;;28.87;44.07;100150.10;104494;1309;75921;-80
2022/08/17 00:14:17;;;;;;;7.40;5.30;;;;;;;28.87;44.26;100150.52;104666;1307;61089;-80
2022/08/17 00:16:48;;;;;;;6.80;5.30;;;;;;;28.87;44.30;100147.66;104630;1309;61266;-80
2022/08/17 00:19:15;;;;;;;6.70;5.40;;;;;;;28.87;44.31;100145.61;104554;1309;73962;-81
2022/08/17 00:21:45;;;;;;;7.70;5.60;;;;;;;28.87;44.18;100145.27;104623;1309;75704;-82
2022/08/17 00:24:10;;;;;;;7.40;5.40;;;;;;;28.87;44.14;100141.27;104552;1309;61151;-81
2022/08/17 00:26:36;;;;;;;6.70;5.30;;;;;;;28.86;44.38;100146.06;104554;1309;61307;-81
2022/08/17 00:29:02;;;;;;;7.10;5.90;;;;;;;28.86;44.19;100140.80;104562;1309;61361;-81
2022/08/17 00:31:28;;;;;;;7.80;5.50;;;;;;;28.87;44.33;100140.93;104587;1309;61264;-80
2022/08/17 00:33:53;;;;;;;7.60;5.10;;;;;;;28.86;44.48;100144.60;104597;1309;61323;-80
2022/08/17 00:36:20;;;;;;;6.20;5.10;;;;;;;28.87;44.27;100145.11;104659;1309;61243;-80
2022/08/17 00:38:45;;;;;;;7.00;5.70;;;;;;;28.86;44.29;100145.89;104431;1310;61256;-81
2022/08/17 00:41:16;;;;;;;6.50;5.20;;;;;;;28.86;44.28;100143.89;104543;1309;61387;-80
2022/08/17 00:43:44;;;;;;;7.30;5.80;;;;;;;28.86;44.33;100144.05;104536;1309;75907;-80
2022/08/17 00:46:14;;;;;;;6.10;5.30;;;;;;;28.86;44.16;100143.58;104551;1309;61565;-81
2022/08/17 00:48:40;;;;;;;6.90;5.40;;;;;;;28.86;44.39;100143.92;104594;1309;61182;-80
2022/08/17 00:51:41;;;;;;;6.90;5.40;;;;;;;28.86;44.24;100147.23;104578;1308;61163;-80
2022/08/17 00:54:19;;;;;;;6.30;5.10;;;;;;;28.85;44.33;100151.61;104292;1313;75842;-81
2022/08/17 00:56:47;;;;;;;8.00;5.40;;;;;;;28.85;44.57;100149.98;104274;1313;61300;-81
2022/08/17 00:59:15;;;;;;;6.70;5.30;;;;;;;28.85;44.65;100146.55;104124;1313;61572;-81
2022/08/17 01:01:41;;;;;;;6.40;5.10;;;;;;;28.85;44.47;100144.16;104269;1313;73939;-81
2022/08/17 01:04:06;;;;;;;8.00;5.80;;;;;;;28.85;44.62;100146.49;104177;1315;61408;-81
2022/08/17 01:06:32;;;;;;;7.40;5.50;;;;;;;28.85;44.66;100146.17;104222;1313;61301;-81
2022/08/17 01:08:58;;;;;;;6.80;5.40;;;;;;;28.85;44.73;100149.80;104204;1313;62098;-81
2022/08/17 01:11:25;;;;;;;7.10;5.60;;;;;;;28.85;44.77;100153.60;104250;1314;61310;-80
2022/08/17 01:13:51;;;;;;;6.70;5.50;;;;;;;28.85;44.72;100159.54;104184;1313;61212;-80
2022/08/17 01:16:25;;;;;;;6.60;5.60;;;;;;;28.85;44.77;100161.38;104321;1315;61374;-80
2022/08/17 01:18:53;;;;;;;8.60;6.20;;;;;;;28.85;44.62;100160.36;104299;1315;61137;-80
2022/08/17 01:21:26;;;;;;;7.00;5.50;;;;;;;28.85;44.66;100159.98;104346;1313;73055;-80
2022/08/17 01:23:52;;;;;;;7.10;5.60;;;;;;;28.85;44.66;100156.02;104246;1315;74742;-80
2022/08/17 01:26:18;;;;;;;6.50;5.30;;;;;;;28.84;44.86;100151.91;104283;1313;61981;-82
2022/08/17 01:28:44;;;;;;;7.70;5.60;;;;;;;28.85;44.73;100149.89;104276;1313;61324;-81
2022/08/17 01:31:09;;;;;;;10.00;5.50;;;;;;;28.84;44.87;100151.00;104390;1309;61269;-81
2022/08/17 01:33:36;;;;;;;7.90;5.80;;;;;;;28.84;44.73;100148.64;104414;1309;61259;-81
2022/08/17 01:36:02;;;;;;;7.00;5.30;;;;;;;28.84;44.81;100148.81;104533;1309;61332;-81
2022/08/17 01:38:30;;;;;;;6.90;5.50;;;;;;;28.84;44.88;100149.94;104603;1309;61259;-81
2022/08/17 01:41:02;;;;;;;7.60;5.40;;;;;;;28.84;44.66;100149.73;104473;1309;61271;-82
2022/08/17 01:43:32;;;;;;;7.50;6.10;;;;;;;28.84;44.81;100147.94;104533;1310;75689;-82
2022/08/17 01:45:58;;;;;;;6.80;5.50;;;;;;;28.84;45.03;100144.16;104609;1309;61378;-82
2022/08/17 01:48:29;;;;;;;7.50;5.70;;;;;;;28.84;44.80;100153.44;104536;1309;61232;-82
2022/08/17 01:50:55;;;;;;;7.10;5.60;;;;;;;28.84;45.11;100158.85;104523;1308;74106;-80
2022/08/17 01:53:42;;;;;;;7.30;5.60;;;;;;;28.84;45.08;100155.41;104592;1309;61252;-80
2022/08/17 01:56:09;;;;;;;7.90;6.00;;;;;;;28.84;45.06;100159.41;104571;1309;61334;-82
2022/08/17 01:58:35;;;;;;;6.60;5.30;;;;;;;28.83;44.96;100160.34;104559;1309;61199;-79
2022/08/17 02:01:01;;;;;;;7.00;5.30;;;;;;;28.84;45.06;100160.13;104552;1309;61343;-80
2022/08/17 02:03:27;;;;;;;6.60;5.70;;;;;;;28.83;45.00;100158.70;104570;1309;61304;-80
2022/08/17 02:05:53;;;;;;;8.50;6.10;;;;;;;28.83;45.11;100154.73;104598;1309;61418;-80
2022/08/17 02:08:19;;;;;;;7.30;5.70;;;;;;;28.83;45.09;100156.38;104592;1309;61282;-80
2022/08/17 02:10:45;;;;;;;7.70;5.50;;;;;;;28.83;45.04;100159.48;104570;1309;61271;-80
2022/08/17 02:13:11;;;;;;;7.60;5.50;;;;;;;28.83;45.36;100161.48;104586;1309;61320;-80
2022/08/17 02:15:36;;;;;;;7.90;5.30;;;;;;;28.82;45.36;100160.65;104621;1307;61368;-81
2022/08/17 02:18:03;;;;;;;7.60;5.80;;;;;;;28.82;45.31;100161.73;104529;1309;61270;-80
2022/08/17 02:20:31;;;;;;;8.10;5.90;;;;;;;28.82;45.09;100159.77;104515;1309;61375;-81
2022/08/17 02:23:14;;;;;;;8.30;6.20;;;;;;;28.82;45.21;100156.71;104487;1309;71880;-80
2022/08/17 02:25:42;;;;;;;8.00;5.90;;;;;;;28.82;45.32;100157.78;104528;1309;61293;-80
2022/08/17 02:28:08;;;;;;;7.40;5.60;;;;;;;28.81;45.16;100155.48;104551;1309;61278;-80
2022/08/17 02:30:34;;;;;;;8.00;5.80;;;;;;;28.81;45.40;100154.61;104606;1309;61259;-80
2022/08/17 02:33:00;;;;;;;7.40;5.80;;;;;;;28.81;45.41;100154.23;104601;1308;61115;-80
2022/08/17 02:35:25;;;;;;;7.30;5.80;;;;;;;28.81;45.34;100155.52;104596;1309;61355;-80
2022/08/17 02:37:51;;;;;;;7.80;6.40;;;;;;;28.81;45.49;100151.59;104482;1309;61430;-80
2022/08/17 02:40:16;;;;;;;7.70;6.30;;;;;;;28.81;45.57;100152.30;104644;1309;61351;-81
2022/08/17 02:42:43;;;;;;;8.30;6.10;;;;;;;28.81;45.53;100150.13;104629;1309;61141;-82
2022/08/17 02:45:14;;;;;;;8.00;6.20;;;;;;;28.81;45.30;100146.66;104494;1309;73697;-82
2022/08/17 02:47:40;;;;;;;9.10;6.40;;;;;;;28.80;45.66;100146.06;104453;1309;75000;-81
2022/08/17 02:50:08;;;;;;;7.10;5.70;;;;;;;28.80;45.50;100147.86;104529;1308;61186;-81
2022/08/17 02:52:38;;;;;;;7.40;5.60;;;;;;;28.80;45.80;100146.98;104591;1308;61934;-81
2022/08/17 02:55:35;;;;;;;6.90;5.90;;;;;;;28.80;45.48;100147.14;104600;1309;73863;-81
2022/08/17 02:58:02;;;;;;;8.40;6.00;;;;;;;28.79;45.41;100151.74;104568;1309;75219;-80
2022/08/17 03:00:33;;;;;;;8.50;6.10;;;;;;;28.80;45.41;100155.54;104639;1309;61293;-80
2022/08/17 03:02:59;;;;;;;8.90;6.30;;;;;;;28.79;45.61;100150.67;104603;1309;61170;-80
2022/08/17 03:05:26;;;;;;;8.00;6.50;;;;;;;28.80;45.72;100156.58;103229;1309;1851751;-81
2022/08/17 03:07:52;;;;;;;8.80;5.90;;;;;;;28.80;45.55;100158.59;104601;1309;74810;-81
2022/08/17 03:10:18;;;;;;;6.60;5.70;;;;;;;28.80;45.56;100159.16;104453;1309;62065;-81
2022/08/17 03:12:44;;;;;;;9.80;5.90;;;;;;;28.79;45.68;100155.39;104614;1308;61298;-81
2022/08/17 03:15:16;;;;;;;9.20;6.20;;;;;;;28.79;45.70;100163.00;104520;1309;61294;-81
2022/08/17 03:17:41;;;;;;;7.10;6.10;;;;;;;28.79;45.55;100165.39;104616;1309;75686;-81
2022/08/17 03:20:08;;;;;;;7.50;6.40;;;;;;;28.79;45.72;100166.30;104548;1309;61329;-81
2022/08/17 03:22:38;;;;;;;8.20;6.20;;;;;;;28.78;45.65;100161.64;104556;1309;61278;-81
2022/08/17 03:25:04;;;;;;;7.60;6.10;;;;;;;28.78;45.75;100162.23;104509;1308;73757;-81
2022/08/17 03:27:29;;;;;;;7.90;6.20;;;;;;;28.79;45.63;100167.59;104581;1308;61158;-81
2022/08/17 03:29:55;;;;;;;7.20;6.00;;;;;;;28.78;45.70;100178.48;104540;1309;61357;-81
2022/08/17 03:32:21;;;;;;;7.50;6.30;;;;;;;28.77;45.58;100184.91;104512;1308;61287;-81
2022/08/17 03:34:46;;;;;;;7.50;6.20;;;;;;;28.78;45.69;100188.50;104499;1309;61306;-81
2022/08/17 03:37:12;;;;;;;7.90;6.20;;;;;;;28.78;45.57;100191.18;104645;1309;61391;-81
2022/08/17 03:39:37;;;;;;;10.20;6.10;;;;;;;28.78;45.57;100185.08;104542;1309;75450;-81
2022/08/17 03:42:13;;;;;;;7.30;6.20;;;;;;;28.78;45.71;100182.52;104518;1309;61282;-80
2022/08/17 03:44:39;;;;;;;7.80;6.20;;;;;;;28.77;45.50;100184.23;104539;1309;61736;-80
2022/08/17 03:58:01;;;;;;;7.30;6.20;;;;;;;28.77;45.61;100188.57;104565;1307;72675;-81
2022/08/17 04:00:27;;;;;;;7.50;6.00;;;;;;;28.77;45.70;100189.28;104466;1309;61304;-80
2022/08/17 04:02:53;;;;;;;8.80;6.30;;;;;;;28.78;45.71;100189.07;104634;1307;61297;-81
2022/08/17 04:05:19;;;;;;;8.70;6.20;;;;;;;28.78;45.66;100188.88;104502;1308;61374;-81
2022/08/17 04:07:44;;;;;;;8.40;6.00;;;;;;;28.77;45.63;100185.85;104519;1308;61359;-81
2022/08/17 04:10:11;;;;;;;7.30;5.90;;;;;;;28.78;45.53;100185.77;104571;1308;61234;-81
2022/08/17 04:12:48;;;;;;;7.70;6.10;;;;;;;28.77;45.77;100185.66;104346;1309;73700;-81
2022/08/17 04:15:13;;;;;;;7.70;6.10;;;;;;;28.77;45.42;100185.65;104650;1309;61169;-81
2022/08/17 04:17:39;;;;;;;7.50;6.30;;;;;;;28.78;45.43;100186.33;104588;1309;61470;-81
2022/08/17 04:20:05;;;;;;;7.50;6.00;;;;;;;28.77;45.57;100190.20;104529;1309;61282;-81
2022/08/17 04:22:31;;;;;;;7.60;5.80;;;;;;;28.78;45.72;100192.27;104605;1309;61170;-81
2022/08/17 04:24:57;;;;;;;8.00;6.50;;;;;;;28.78;45.53;100200.58;104612;1309;61259;-81
2022/08/17 04:27:23;;;;;;;7.90;5.80;;;;;;;28.78;45.68;100202.63;104624;1309;61246;-81
2022/08/17 04:29:48;;;;;;;7.10;6.20;;;;;;;28.78;45.67;100205.55;104622;1309;61383;-81
2022/08/17 04:32:14;;;;;;;6.80;5.80;;;;;;;28.78;45.39;100205.34;104507;1309;72928;-81
2022/08/17 04:34:39;;;;;;;8.00;6.30;;;;;;;28.78;45.42;100204.59;104543;1309;61732;-81
2022/08/17 04:37:06;;;;;;;7.90;5.60;;;;;;;28.78;45.65;100203.34;104592;1309;61200;-81
2022/08/17 04:39:32;;;;;;;7.40;6.40;;;;;;;28.78;45.37;100198.61;104665;1308;61262;-81
2022/08/17 04:42:07;;;;;;;7.40;6.30;;;;;;;28.77;45.60;100194.72;104560;1308;60441;-81
2022/08/17 04:44:33;;;;;;;8.10;6.80;;;;;;;28.77;45.39;100193.06;104487;1309;75850;-81
2022/08/17 04:46:59;;;;;;;7.80;5.90;;;;;;;28.77;45.48;100194.34;104526;1309;61410;-81
2022/08/17 04:49:25;;;;;;;7.60;5.80;;;;;;;28.78;45.51;100199.17;104586;1309;61355;-81
2022/08/17 04:51:50;;;;;;;7.50;5.60;;;;;;;28.78;45.44;100192.67;104590;1309;61422;-81
2022/08/17 04:54:18;;;;;;;7.50;6.00;;;;;;;28.78;45.57;100197.88;104507;1309;61359;-81
2022/08/17 04:56:45;;;;;;;7.80;5.90;;;;;;;28.79;45.40;100201.04;104529;1309;61219;-81
2022/08/17 04:59:14;;;;;;;9.80;6.40;;;;;;;28.78;45.32;100197.51;104518;1309;61377;-81
2022/08/17 05:01:41;;;;;;;7.90;6.10;;;;;;;28.79;45.41;100201.80;104493;1309;72867;-81
2022/08/17 05:04:09;;;;;;;7.60;6.10;;;;;;;28.79;45.38;100199.98;104505;1309;61368;-82
2022/08/17 05:06:34;;;;;;;9.50;6.70;;;;;;;28.79;45.45;100205.17;104505;1309;61278;-83
2022/08/17 05:09:00;;;;;;;10.00;7.30;;;;;;;28.78;45.17;100204.77;104475;1309;61260;-81
2022/08/17 05:11:26;;;;;;;12.20;8.80;;;;;;;28.77;45.28;100208.91;104486;1309;61311;-81
2022/08/17 05:13:53;;;;;;;16.70;8.70;;;;;;;28.74;45.22;100204.77;104482;1309;61338;-81
2022/08/17 05:16:19;;;;;;;14.70;8.90;;;;;;;28.73;45.00;100207.47;104345;1309;61341;-81
2022/08/17 05:18:45;;;;;;;12.50;8.50;;;;;;;28.73;44.99;100208.95;104453;1309;61316;-80
2022/08/17 05:21:11;;;;;;;14.80;8.50;;;;;;;28.72;44.85;100211.77;104583;1309;61312;-81
2022/08/17 05:23:37;;;;;;;13.70;8.40;;;;;;;28.72;44.96;100215.21;104511;1308;61262;-81
2022/08/17 05:26:03;;;;;;;14.10;8.40;;;;;;;28.72;44.63;100220.27;104518;1309;62402;-81
2022/08/17 05:28:30;;;;;;;12.50;9.00;;;;;;;28.72;44.64;100224.23;104523;1309;61444;-81
2022/08/17 05:30:57;;;;;;;12.90;8.10;;;;;;;28.72;44.73;100226.78;104554;1309;61843;-81
2022/08/17 05:33:25;;;;;;;16.00;8.10;;;;;;;28.73;44.60;100222.04;104453;1309;73848;-81
2022/08/17 05:35:52;;;;;;;12.00;7.10;;;;;;;28.72;44.50;100220.61;104317;1309;75596;-81
2022/08/17 05:38:18;;;;;;;13.10;8.00;;;;;;;28.72;44.52;100219.52;104498;1309;62624;-81
2022/08/17 05:40:44;;;;;;;13.50;7.40;;;;;;;28.72;44.53;100217.89;104494;1309;61052;-81
2022/08/17 05:43:18;;;;;;;8.90;7.20;;;;;;;28.73;44.34;100217.80;104427;1309;61403;-81
2022/08/17 05:45:46;;;;;;;15.30;8.30;;;;;;;28.74;44.67;100221.93;104380;1308;75009;-81
2022/08/17 05:48:12;;;;;;;17.10;8.50;;;;;;;28.74;44.24;100222.10;104371;1309;61359;-81
2022/08/17 05:51:09;;;;;;;22.40;9.20;;;;;;;28.74;44.17;100223.92;104490;1309;61287;-81
2022/08/17 05:53:50;;;;;;;13.90;8.50;;;;;;;28.73;44.09;100221.33;104466;1309;72603;-81
2022/08/17 05:56:25;;;;;;;16.00;9.00;;;;;;;28.72;43.91;100221.77;104611;1309;75814;-81
2022/08/17 05:59:14;;;;;;;14.80;9.20;;;;;;;28.72;43.83;100220.47;104581;1309;61541;-81
2022/08/17 06:01:59;;;;;;;17.90;9.50;;;;;;;28.71;43.96;100221.29;104458;1307;61363;-81
2022/08/17 06:04:45;;;;;;;16.20;9.00;;;;;;;28.72;43.93;100229.02;104438;1308;74700;-81
2022/08/17 06:07:31;;;;;;;14.80;8.80;;;;;;;28.72;44.12;100228.66;104076;1315;74668;-81
2022/08/17 06:10:13;;;;;;;13.60;9.00;;;;;;;28.72;44.04;100229.88;104180;1315;61422;-81
2022/08/17 06:13:18;;;;;;;14.20;9.20;;;;;;;28.72;43.73;100228.25;104215;1315;61401;-81
2022/08/17 06:15:54;;;;;;;14.00;8.70;;;;;;;28.72;44.03;100230.79;103097;1321;73968;-81
2022/08/17 06:18:19;;;;;;;15.50;8.80;;;;;;;28.72;43.91;100230.75;103885;1314;74609;-81
2022/08/17 06:20:53;;;;;;;14.30;9.10;;;;;;;28.73;43.76;100228.85;104049;1315;61420;-81
2022/08/17 06:23:38;;;;;;;17.30;9.40;;;;;;;28.74;43.88;100228.20;103952;1315;62736;-80
2022/08/17 06:26:27;;;;;;;12.50;7.90;;;;;;;28.75;43.79;100225.41;104021;1315;73318;-80
2022/08/17 06:28:58;;;;;;;13.40;8.50;;;;;;;28.75;43.84;100233.66;104112;1315;75783;-80
2022/08/17 06:31:30;;;;;;;15.40;8.20;;;;;;;28.77;44.05;100236.73;103891;1315;61299;-80
2022/08/17 06:33:57;;;;;;;13.60;8.60;;;;;;;28.79;43.96;100238.88;104847;1314;61401;-81
2022/08/17 06:36:31;;;;;;;12.40;8.80;;;;;;;28.81;44.06;100239.25;104880;1314;64092;-81
2022/08/17 06:39:09;;;;;;;13.20;8.60;;;;;;;28.83;44.15;100244.95;104428;1314;65984;-81
2022/08/17 06:41:48;;;;;;;16.10;8.10;;;;;;;28.86;44.12;100244.27;104061;1315;61206;-81
2022/08/17 06:44:20;;;;;;;15.40;8.80;;;;;;;28.88;44.16;100246.95;104065;1312;61323;-81
2022/08/17 06:46:51;;;;;;;15.70;7.90;;;;;;;28.89;44.04;100244.62;104532;1307;73230;-82
2022/08/17 06:49:20;;;;;;;11.80;7.70;;;;;;;28.90;44.04;100245.02;104367;1307;74355;-81
2022/08/17 06:51:53;;;;;;;16.20;8.10;;;;;;;28.91;44.23;100242.73;104488;1309;61279;-81
2022/08/17 06:54:47;;;;;;;12.50;7.60;;;;;;;28.92;44.35;100242.10;104536;1309;61248;-81
2022/08/17 06:57:15;;;;;;;13.50;7.40;;;;;;;28.92;44.19;100237.55;104369;1309;73839;-81
2022/08/17 07:00:00;;;;;;;11.40;7.30;;;;;;;28.93;44.19;100234.22;104406;1307;75578;-81
2022/08/17 07:02:35;;;;;;;11.20;7.90;;;;;;;28.94;43.96;100230.86;104212;1310;62504;-81
2022/08/17 07:05:02;;;;;;;12.20;7.60;;;;;;;28.96;44.15;100235.36;104577;1308;61265;-81
2022/08/17 07:10:12;;;;;;;11.50;7.30;;;;;;;28.97;44.23;100239.88;104356;1307;74921;-81
2022/08/17 07:12:39;;;;;;;17.30;7.10;;;;;;;28.99;44.11;100237.05;104314;1309;61458;-81
2022/08/17 07:15:12;;;;;;;12.10;7.70;;;;;;;29.00;44.01;100234.90;104320;1309;63313;-81
2022/08/17 07:17:38;;;;;;;11.10;7.60;;;;;;;29.00;44.16;100233.38;104296;1309;73992;-81
2022/08/17 07:20:10;;;;;;;10.20;7.10;;;;;;;29.01;44.05;100238.74;104361;1308;61436;-81
2022/08/17 07:22:55;;;;;;;10.20;7.40;;;;;;;29.02;44.00;100236.63;104503;1309;61405;-81
2022/08/17 07:25:20;;;;;;;10.20;7.50;;;;;;;29.03;43.82;100237.66;104485;1309;61308;-81
2022/08/17 07:27:51;;;;;;;11.90;7.20;;;;;;;29.03;44.19;100238.71;104507;1309;61297;-81
2022/08/17 07:30:24;;;;;;;9.60;7.00;;;;;;;29.04;44.26;100244.36;104545;1309;75627;-81
2022/08/17 07:32:52;;;;;;;11.10;7.10;;;;;;;29.04;44.04;100247.45;104502;1307;61340;-81
2022/08/17 07:35:38;;;;;;;11.40;7.40;;;;;;;29.04;44.16;100246.34;104629;1308;61396;-80
2022/08/17 07:38:08;;;;;;;11.20;7.30;;;;;;;29.05;44.17;100245.39;104422;1308;73623;-80
2022/08/17 07:40:39;;;;;;;11.20;7.10;;;;;;;29.05;44.12;100243.30;104369;1309;74757;-80
2022/08/17 07:43:16;;;;;;;10.40;7.10;;;;;;;29.06;44.27;100239.85;104373;1309;61306;-80
2022/08/17 07:48:39;;;;;;;11.30;7.50;;;;;;;29.07;44.21;100237.15;104544;1309;73731;-80
2022/08/17 07:51:38;;;;;;;11.40;7.60;;;;;;;29.08;44.32;100232.33;104326;1309;74981;-80
2022/08/17 07:54:35;;;;;;;10.60;7.00;;;;;;;29.08;44.43;100232.30;104352;1308;61265;-80
2022/08/17 07:57:13;;;;;;;11.40;7.00;;;;;;;29.09;44.18;100231.84;103999;1314;60475;-80
2022/08/17 07:59:40;;;;;;;9.40;6.70;;;;;;;29.08;44.33;100228.83;104146;1313;73671;-80
2022/08/17 08:02:24;;;;;;;9.40;6.80;;;;;;;29.09;44.19;100227.50;104066;1314;74664;-80
2022/08/17 08:05:19;;;;;;;10.00;6.90;;;;;;;29.09;44.34;100224.98;104138;1314;61846;-80
2022/08/17 08:08:03;;;;;;;10.10;7.00;;;;;;;29.09;44.20;100227.90;104098;1314;62333;-80
2022/08/17 08:10:40;;;;;;;12.00;7.10;;;;;;;29.09;43.99;100227.50;104150;1315;74145;-80
2022/08/17 08:13:22;;;;;;;8.80;6.60;;;;;;;29.09;44.09;100226.71;104728;1314;74867;-80
2022/08/17 08:15:50;;;;;;;9.10;6.80;;;;;;;29.09;44.33;100224.02;104153;1315;61499;-80
2022/08/17 08:18:36;;;;;;;8.90;6.60;;;;;;;29.11;44.23;100221.35;104172;1315;61280;-80
2022/08/17 08:21:09;;;;;;;9.40;6.60;;;;;;;29.10;44.15;100219.24;104318;1315;73741;-80
2022/08/17 08:23:46;;;;;;;8.90;6.40;;;;;;;29.11;44.07;100222.06;104086;1315;75735;-81
2022/08/17 08:26:39;;;;;;;9.80;6.80;;;;;;;29.11;43.87;100220.63;104047;1313;61281;-80
2022/08/17 08:29:31;;;;;;;12.20;6.40;;;;;;;29.10;44.13;100220.27;104054;1313;61471;-80
2022/08/17 08:32:16;;;;;;;10.30;6.40;;;;;;;29.11;43.90;100216.80;104112;1314;73712;-80
2022/08/17 08:35:11;;;;;;;9.00;6.30;;;;;;;29.12;43.92;100216.73;104426;1308;75816;-80
2022/08/17 08:38:07;;;;;;;9.00;6.50;;;;;;;29.11;43.94;100213.66;104299;1308;61654;-80
2022/08/17 08:40:37;;;;;;;8.80;6.60;;;;;;;29.11;44.00;100204.63;104467;1309;61664;-80
2022/08/17 08:43:21;;;;;;;10.00;6.60;;;;;;;29.10;44.05;100202.87;104350;1309;74141;-80
2022/08/17 08:46:24;;;;;;;8.40;6.00;;;;;;;29.11;43.78;100203.33;104377;1309;74760;-80
2022/08/17 08:49:22;;;;;;;6.90;6.00;;;;;;;29.11;43.71;100201.61;104439;1309;61194;-80
2022/08/17 08:51:54;;;;;;;9.10;6.50;;;;;;;29.10;43.91;100201.44;103875;1315;61153;-81
2022/08/17 08:54:45;;;;;;;8.20;6.50;;;;;;;29.10;43.92;100195.09;104030;1315;72782;-80
2022/08/17 08:57:17;;;;;;;9.10;6.80;;;;;;;29.11;43.89;100193.76;104025;1315;74914;-80
2022/08/17 09:00:16;;;;;;;9.70;6.20;;;;;;;29.11;43.93;100197.94;104049;1315;61283;-80
2022/08/17 09:02:45;;;;;;;9.40;6.40;;;;;;;29.10;43.83;100196.55;103245;1321;61606;-80
2022/08/17 09:05:56;;;;;;;8.10;6.80;;;;;;;29.10;43.86;100194.17;103295;1321;72738;-80
2022/08/17 09:08:44;;;;;;;9.10;6.70;;;;;;;29.10;43.84;100198.05;102517;1329;73773;-81
2022/08/17 09:11:20;;;;;;;8.70;6.60;;;;;;;29.10;44.00;100197.09;102160;1335;61192;-81
2022/08/17 09:13:55;;;;;;;8.00;6.40;;;;;;;29.10;43.81;100194.61;102305;1334;61800;-80
2022/08/17 09:16:34;;;;;;;8.10;6.50;;;;;;;29.10;43.88;100195.26;102378;1334;73851;-80
2022/08/17 09:19:18;;;;;;;9.10;6.70;;;;;;;29.10;43.91;100193.70;102229;1335;76289;-80
2022/08/17 09:21:45;;;;;;;8.70;6.40;;;;;;;29.10;44.09;100193.52;102221;1335;61057;-80
2022/08/17 09:24:41;;;;;;;8.50;6.20;;;;;;;29.10;43.82;100187.38;102148;1335;61268;-80
2022/08/17 09:27:17;;;;;;;9.20;6.20;;;;;;;29.09;43.84;100185.08;102887;1341;73913;-81
2022/08/17 09:29:56;;;;;;;7.30;5.90;;;;;;;29.10;43.94;100186.13;102920;1335;65887;-81
2022/08/17 09:32:32;;;;;;;7.40;6.00;;;;;;;29.12;44.00;100186.61;101907;1335;61606;-80
2022/08/17 09:35:01;;;;;;;9.30;6.10;;;;;;;29.13;43.95;100186.15;101919;1335;61244;-80
2022/08/17 09:37:32;;;;;;;9.70;6.20;;;;;;;29.13;43.95;100186.11;103018;1335;74227;-80
2022/08/17 09:40:21;;;;;;;7.30;6.30;;;;;;;29.14;44.04;100189.98;102273;1332;77090;-80
2022/08/17 09:42:48;;;;;;;8.20;6.50;;;;;;;29.14;43.91;100188.17;102401;1331;61275;-80
2022/08/17 09:45:36;;;;;;;7.20;6.10;;;;;;;29.14;43.83;100190.11;102735;1323;61089;-80
2022/08/17 09:48:13;;;;;;;9.00;6.10;;;;;;;29.15;44.00;100190.81;103246;1317;73790;-80
2022/08/17 09:50:44;;;;;;;7.60;6.30;;;;;;;29.15;43.95;100192.11;103950;1317;75296;-80
2022/08/17 09:53:10;;;;;;;10.20;6.40;;;;;;;29.13;43.69;100186.82;103812;1317;61409;-80
2022/08/17 09:55:57;;;;;;;7.50;6.30;;;;;;;29.13;43.78;100190.41;103807;1317;61506;-81
2022/08/17 09:58:25;;;;;;;8.10;6.00;;;;;;;29.13;43.77;100187.90;104024;1317;74874;-80
2022/08/17 10:01:22;;;;;;;7.90;6.40;;;;;;;29.12;43.94;100188.17;104004;1316;74797;-80
2022/08/17 10:04:11;;;;;;;8.50;6.40;;;;;;;29.12;43.85;100190.77;103977;1309;61190;-80
2022/08/17 10:07:01;;;;;;;8.30;6.10;;;;;;;29.12;43.93;100188.96;105326;1311;60873;-81
2022/08/17 10:09:54;;;;;;;7.70;6.20;;;;;;;29.11;43.83;100183.94;104175;1310;64013;-81
2022/08/17 10:12:41;;;;;;;7.00;5.80;;;;;;;29.12;44.11;100185.09;104176;1311;74710;-80
2022/08/17 10:15:32;;;;;;;10.40;7.10;;;;;;;29.13;44.04;100185.39;104134;1311;61547;-80
2022/08/17 10:18:12;;;;;;;7.30;6.00;;;;;;;29.13;44.08;100185.06;104187;1312;61304;-80
2022/08/17 10:27:00;;;;;;;8.80;6.20;;;;;;;29.11;44.08;100175.63;104413;1311;62482;-80
2022/08/17 10:29:32;;;;;;;7.60;6.40;;;;;;;29.11;44.06;100169.14;104415;1310;61262;-82
2022/08/17 10:32:03;;;;;;;7.50;6.10;;;;;;;29.10;43.87;100170.13;104354;1312;72983;-83
2022/08/17 10:34:52;;;;;;;7.70;6.10;;;;;;;29.10;43.89;100170.30;104473;1312;75725;-80
2022/08/17 10:37:24;;;;;;;7.20;5.60;;;;;;;29.09;43.82;100168.94;104434;1309;61173;-82
2022/08/17 10:40:19;;;;;;;7.30;6.50;;;;;;;29.09;43.82;100167.75;104648;1308;61272;-82
2022/08/17 10:42:56;;;;;;;6.90;6.00;;;;;;;29.08;43.83;100164.49;104298;1314;72659;-82
2022/08/17 10:45:28;;;;;;;8.60;6.30;;;;;;;29.08;43.70;100161.33;104326;1315;75750;-82
2022/08/17 10:48:00;;;;;;;8.00;6.10;;;;;;;29.07;44.02;100165.89;104270;1314;61296;-82
2022/08/17 10:50:54;;;;;;;8.20;5.90;;;;;;;29.08;44.06;100162.45;104317;1315;61459;-82
2022/08/17 10:53:31;;;;;;;6.80;5.40;;;;;;;29.06;43.76;100163.11;104269;1315;74037;-82
2022/08/17 10:56:17;;;;;;;7.30;6.00;;;;;;;29.07;43.74;100160.95;104312;1313;75800;-82
2022/08/17 10:58:56;;;;;;;7.20;6.10;;;;;;;29.06;43.82;100160.48;104295;1314;61368;-82
2022/08/17 11:01:51;;;;;;;7.00;5.80;;;;;;;29.06;43.70;100152.55;104248;1315;61166;-82
2022/08/17 11:04:35;;;;;;;6.70;5.70;;;;;;;29.05;43.89;100148.91;104176;1314;72563;-81
2022/08/17 11:07:26;;;;;;;7.30;6.00;;;;;;;29.05;43.83;100149.36;104237;1315;75732;-82
2022/08/17 11:10:27;;;;;;;6.50;5.80;;;;;;;29.05;43.81;100148.47;104262;1315;61304;-82
2022/08/17 11:13:18;;;;;;;6.80;5.70;;;;;;;29.04;43.85;100146.85;103313;1324;61166;-82
2022/08/17 11:16:16;;;;;;;7.80;6.40;;;;;;;29.05;44.06;100146.85;102769;1329;73184;-80
2022/08/17 11:19:09;;;;;;;6.60;5.90;;;;;;;29.05;43.95;100139.95;102736;1327;75101;-82
2022/08/17 11:22:05;;;;;;;6.80;6.10;;;;;;;29.05;44.15;100135.23;103008;1326;61337;-79
2022/08/17 11:24:50;;;;;;;8.20;5.80;;;;;;;29.05;44.06;100139.89;102698;1329;61581;-82
2022/08/17 11:27:30;;;;;;;7.90;6.10;;;;;;;29.05;44.08;100133.95;102736;1329;73791;-82
2022/08/17 11:29:59;;;;;;;6.40;5.40;;;;;;;29.05;43.86;100133.52;102633;1329;74837;-80
2022/08/17 11:32:43;;;;;;;7.00;5.80;;;;;;;29.06;43.83;100135.84;102644;1329;61160;-79
2022/08/17 11:35:25;;;;;;;6.20;5.40;;;;;;;29.06;43.94;100131.12;102587;1329;61166;-82
2022/08/17 11:38:29;;;;;;;8.90;5.80;;;;;;;29.06;43.88;100128.56;102650;1329;72890;-82
2022/08/17 11:41:02;;;;;;;6.20;5.60;;;;;;;29.06;43.81;100126.06;102217;1335;76398;-82
2022/08/17 11:44:06;;;;;;;7.70;5.80;;;;;;;29.06;43.98;100124.40;102224;1335;61379;-82
2022/08/17 11:52:45;;;;;;;6.30;5.70;;;;;;;29.05;43.97;100111.90;102829;1323;75823;-82
2022/08/17 11:55:33;;;;;;;6.40;5.50;;;;;;;29.05;43.90;100113.32;103233;1323;61156;-82
2022/08/17 11:58:05;;;;;;;6.90;5.60;;;;;;;29.05;44.03;100115.30;103288;1323;61747;-82
2022/08/17 12:00:48;;;;;;;7.10;5.80;;;;;;;29.04;44.03;100111.19;103278;1322;73046;-82
2022/08/17 12:03:37;;;;;;;7.30;5.80;;;;;;;29.04;43.85;100107.80;104130;1316;75684;-82
2022/08/17 12:06:15;;;;;;;6.90;5.80;;;;;;;29.04;43.85;100107.42;104131;1317;61383;-82
2022/08/17 12:08:44;;;;;;;7.20;5.50;;;;;;;29.04;43.70;100104.73;104144;1317;61489;-82
2022/08/17 12:11:31;;;;;;;6.70;5.50;;;;;;;29.03;43.98;100096.83;103893;1317;72787;-82
2022/08/17 12:13:58;;;;;;;7.70;5.80;;;;;;;29.04;43.98;100097.34;104099;1317;74092;-82
2022/08/17 12:16:23;;;;;;;7.60;6.00;;;;;;;29.04;43.94;100097.86;103866;1317;61316;-82